| time (UTC) | temp F | wind direction | speed knots | gust knots | rain 1hr in | rain 24hr in | rain mn in | humidity % | barometer mb |
| 20260509035004 | 55 | 176 | 0.0 | 0.9 | 0.00 | 0.00 | 0.00 | 83 | 994.2 |
| 20260509034504 | 55 | 150 | 0.0 | 0.0 | 0.00 | 0.00 | 0.00 | 82 | 994.1 |
| 20260509034005 | 55 | 171 | 0.0 | 0.0 | 0.00 | 0.00 | 0.00 | 82 | 994.5 |
| 20260509033504 | 55 | 147 | 0.0 | 0.0 | 0.00 | 0.00 | 0.00 | 82 | 994.4 |
| 20260509033004 | 55 | 154 | 0.0 | 0.0 | 0.00 | 0.00 | 0.00 | 81 | 994.2 |
| 20260509031504 | 55 | 170 | 0.0 | 0.0 | 0.00 | 0.00 | 0.00 | 80 | 994.5 |
| 20260509031005 | 56 | 211 | 0.9 | 1.7 | 0.00 | 0.00 | 0.00 | 80 | 994.5 |
| 20260509030504 | 56 | 257 | 1.7 | 1.7 | 0.00 | 0.00 | 0.00 | 79 | 994.5 |
| 20260509030004 | 56 | 99 | 1.7 | 1.7 | 0.00 | 0.00 | 0.00 | 79 | 994.5 |
| 20260509025505 | 56 | 187 | 0.0 | 0.0 | 0.00 | 0.00 | 0.00 | 79 | 994.4 |
| 20260509025005 | 56 | 156 | 0.0 | 0.0 | 0.00 | 0.00 | 0.00 | 78 | 994.8 |
| 20260509024504 | 56 | 213 | 1.7 | 1.7 | 0.00 | 0.00 | 0.00 | 78 | 994.8 |
| 20260509023005 | 57 | 121 | 0.0 | 0.0 | 0.00 | 0.00 | 0.00 | 77 | 994.7 |
| 20260509022004 | 56 | 202 | 0.9 | 1.7 | 0.00 | 0.00 | 0.00 | 78 | 994.7 |
| 20260509021504 | 56 | 169 | 1.7 | 1.7 | 0.00 | 0.00 | 0.00 | 79 | 994.4 |
| 20260509020005 | 56 | 126 | 0.0 | 0.0 | 0.00 | 0.00 | 0.00 | 80 | 994.4 |
| 20260509015504 | 56 | 121 | 0.0 | 0.0 | 0.00 | 0.00 | 0.00 | 80 | 994.4 |
| 20260509015004 | 56 | 134 | 0.0 | 0.0 | 0.00 | 0.00 | 0.00 | 80 | 994.4 |
| 20260509014504 | 56 | 131 | 0.9 | 0.9 | 0.00 | 0.00 | 0.00 | 80 | 994.3 |
| 20260509013504 | 56 | 128 | 0.0 | 0.9 | 0.00 | 0.00 | 0.00 | 80 | 994.2 |
| 20260509013005 | 56 | 127 | 0.9 | 0.9 | 0.00 | 0.00 | 0.00 | 80 | 993.8 |
| 20260509012505 | 56 | 134 | 0.9 | 0.9 | 0.00 | 0.00 | 0.00 | 80 | 994.1 |
| 20260509012004 | 57 | 132 | 0.9 | 1.7 | 0.00 | 0.00 | 0.00 | 79 | 993.8 |
| 20260509011504 | 57 | 155 | 0.9 | 0.9 | 0.00 | 0.00 | 0.00 | 79 | 993.9 |
| 20260509010504 | 57 | 134 | 0.0 | 0.9 | 0.00 | 0.00 | 0.00 | 77 | 993.9 |
| 20260509010004 | 57 | 124 | 0.0 | 0.0 | 0.00 | 0.00 | 0.00 | 76 | 994.0 |
| 20260509005504 | 57 | 126 | 0.0 | 0.9 | 0.00 | 0.00 | 0.00 | 75 | 993.6 |
| 20260509005005 | 58 | 141 | 0.0 | 0.9 | 0.00 | 0.00 | 0.00 | 74 | 993.9 |
| 20260509004504 | 58 | 100 | 0.9 | 0.9 | 0.00 | 0.00 | 0.00 | 73 | 994.0 |
| 20260509004004 | 58 | 122 | 0.0 | 0.9 | 0.00 | 0.00 | 0.00 | 73 | 993.9 |
| 20260509003004 | 59 | 127 | 0.9 | 0.9 | 0.00 | 0.00 | 0.00 | 72 | 993.8 |
| 20260509002504 | 59 | 132 | 0.0 | 0.9 | 0.00 | 0.00 | 0.00 | 71 | 993.6 |
| 20260509002005 | 59 | 138 | 0.0 | 0.0 | 0.00 | 0.00 | 0.00 | 70 | 993.9 |
| 20260509001505 | 60 | 111 | 1.7 | 1.7 | 0.00 | 0.00 | 0.00 | 69 | 993.8 |
| 20260509001004 | 60 | 151 | 0.0 | 0.9 | 0.00 | 0.00 | 0.00 | 67 | 993.8 |
| 20260509000505 | 61 | 141 | 0.0 | 0.0 | 0.00 | 0.00 | 0.00 | 66 | 993.7 |
| 20260509000005 | 61 | 121 | 0.0 | 0.0 | 0.00 | 0.00 | 0.00 | 66 | 993.8 |
| 20260508235504 | 61 | 165 | 0.9 | 0.9 | 0.00 | 0.00 | 0.00 | 66 | 993.8 |
| 20260508235004 | 61 | 132 | 0.9 | 0.9 | 0.00 | 0.00 | 0.00 | 66 | 993.7 |
| 20260508234505 | 61 | 134 | 0.0 | 0.9 | 0.00 | 0.00 | 0.00 | 66 | 994.0 |
| 20260508234005 | 61 | 129 | 0.0 | 0.9 | 0.00 | 0.00 | 0.00 | 65 | 994.1 |
| 20260508233504 | 61 | 137 | 0.9 | 0.9 | 0.00 | 0.00 | 0.00 | 65 | 994.0 |
| 20260508233004 | 61 | 197 | 1.7 | 2.6 | 0.00 | 0.00 | 0.00 | 66 | 994.0 |
| 20260508232505 | 61 | 88 | 0.9 | 1.7 | 0.00 | 0.00 | 0.00 | 67 | 994.1 |
| 20260508232004 | 61 | 141 | 0.0 | 0.9 | 0.00 | 0.00 | 0.00 | 66 | 994.2 |
| 20260508230505 | 62 | 137 | 0.9 | 0.9 | 0.00 | 0.00 | 0.00 | 65 | 994.6 |
| 20260508230005 | 62 | 169 | 0.9 | 0.9 | 0.00 | 0.00 | 0.00 | 65 | 994.8 |
| 20260508225504 | 62 | 190 | 1.7 | 2.6 | 0.00 | 0.00 | 0.00 | 64 | 994.7 |
| 20260508225005 | 62 | 261 | 1.7 | 1.7 | 0.00 | 0.00 | 0.00 | 64 | 994.5 |
| 20260508224505 | 62 | 121 | 0.9 | 0.9 | 0.00 | 0.00 | 0.00 | 65 | 994.9 |
| 20260508223504 | 62 | 110 | 0.9 | 0.9 | 0.00 | 0.00 | 0.00 | 67 | 995.0 |
| 20260508223004 | 62 | 124 | 2.6 | 4.3 | 0.00 | 0.00 | 0.00 | 64 | 995.0 |
| 20260508222505 | 63 | 144 | 1.7 | 1.7 | 0.00 | 0.00 | 0.00 | 59 | 994.9 |
| 20260508222005 | 63 | 163 | 0.9 | 0.9 | 0.00 | 0.00 | 0.00 | 56 | 994.6 |
| 20260508221505 | 63 | 125 | 0.0 | 0.0 | 0.00 | 0.00 | 0.00 | 55 | 994.7 |
| 20260508221004 | 62 | 142 | 0.9 | 1.7 | 0.00 | 0.00 | 0.00 | 56 | 994.8 |
| 20260508220004 | 62 | 153 | 0.0 | 0.9 | 0.00 | 0.00 | 0.00 | 57 | 994.5 |
| 20260508214505 | 62 | 118 | 0.9 | 0.9 | 0.00 | 0.00 | 0.00 | 56 | 994.7 |
| 20260508214005 | 63 | 105 | 0.9 | 1.7 | 0.00 | 0.00 | 0.00 | 54 | 994.8 |
| 20260508213504 | 64 | 201 | 1.7 | 1.7 | 0.00 | 0.00 | 0.00 | 52 | 994.8 |
| 20260508213004 | 64 | 147 | 0.9 | 1.7 | 0.00 | 0.00 | 0.00 | 54 | 994.9 |
| 20260508212504 | 65 | 195 | 2.6 | 2.6 | 0.00 | 0.00 | 0.00 | 52 | 994.9 |
| 20260508212005 | 64 | 141 | 1.7 | 2.6 | 0.00 | 0.00 | 0.00 | 53 | 994.8 |
| 20260508211504 | 64 | 168 | 1.7 | 2.6 | 0.00 | 0.00 | 0.00 | 54 | 994.7 |
| 20260508210005 | 63 | 118 | 1.7 | 1.7 | 0.00 | 0.00 | 0.00 | 56 | 995.1 |
| 20260508205505 | 63 | 224 | 1.7 | 1.7 | 0.00 | 0.00 | 0.00 | 56 | 995.0 |
| 20260508205005 | 62 | 151 | 1.7 | 1.7 | 0.00 | 0.00 | 0.00 | 57 | 994.9 |
| 20260508204005 | 64 | 124 | 0.0 | 0.9 | 0.00 | 0.00 | 0.00 | 54 | 995.1 |
| 20260508203504 | 65 | 133 | 1.7 | 1.7 | 0.00 | 0.00 | 0.00 | 52 | 995.0 |
| 20260508203004 | 64 | 186 | 0.9 | 0.9 | 0.00 | 0.00 | 0.00 | 53 | 995.1 |
| 20260508202504 | 66 | 145 | 4.3 | 6.1 | 0.00 | 0.00 | 0.00 | 49 | 995.3 |
| 20260508202005 | 65 | 147 | 0.9 | 1.7 | 0.00 | 0.00 | 0.00 | 50 | 995.6 |
| 20260508201004 | 64 | 263 | 1.7 | 1.7 | 0.00 | 0.00 | 0.00 | 51 | 995.4 |
| 20260508200504 | 64 | 238 | 1.7 | 4.3 | 0.00 | 0.00 | 0.00 | 50 | 995.7 |
| 20260508200004 | 65 | 142 | 0.9 | 0.9 | 0.00 | 0.00 | 0.00 | 49 | 995.9 |
| 20260508195504 | 65 | 169 | 0.0 | 0.9 | 0.00 | 0.00 | 0.00 | 47 | 996.0 |
| 20260508195005 | 65 | 54 | 0.9 | 0.9 | 0.00 | 0.00 | 0.00 | 48 | 996.0 |
| 20260508194504 | 65 | 151 | 0.0 | 0.9 | 0.00 | 0.00 | 0.00 | 47 | 996.2 |
| 20260508194004 | 65 | 47 | 0.0 | 0.9 | 0.00 | 0.00 | 0.00 | 49 | 996.0 |
| 20260508193004 | 64 | 137 | 0.9 | 0.9 | 0.00 | 0.00 | 0.00 | 49 | 996.2 |
| 20260508192005 | 64 | 168 | 1.7 | 1.7 | 0.00 | 0.00 | 0.00 | 47 | 996.4 |
| 20260508191504 | 62 | 147 | 0.0 | 0.0 | 0.00 | 0.00 | 0.00 | 48 | 996.7 |
| 20260508191004 | 63 | 199 | 0.0 | 0.0 | 0.00 | 0.00 | 0.00 | 47 | 996.6 |
| 20260508190504 | 63 | 121 | 0.9 | 1.7 | 0.00 | 0.00 | 0.00 | 45 | 996.6 |
| 20260508190005 | 64 | 123 | 0.9 | 0.9 | 0.00 | 0.00 | 0.00 | 45 | 996.6 |
| 20260508185505 | 65 | 176 | 0.9 | 1.7 | 0.00 | 0.00 | 0.00 | 45 | 996.7 |
| 20260508185004 | 64 | 132 | 0.0 | 0.0 | 0.00 | 0.00 | 0.00 | 45 | 996.7 |
| 20260508184504 | 64 | 157 | 1.7 | 2.6 | 0.00 | 0.00 | 0.00 | 44 | 996.8 |
| 20260508184005 | 65 | 244 | 2.6 | 5.2 | 0.00 | 0.00 | 0.00 | 44 | 996.7 |
| 20260508183505 | 64 | 129 | 1.7 | 1.7 | 0.00 | 0.00 | 0.00 | 43 | 996.7 |
| 20260508183004 | 64 | 142 | 0.0 | 0.0 | 0.00 | 0.00 | 0.00 | 42 | 996.6 |
| 20260508182504 | 63 | 244 | 1.7 | 1.7 | 0.00 | 0.00 | 0.00 | 45 | 997.0 |
| 20260508182004 | 64 | 190 | 3.5 | 5.2 | 0.00 | 0.00 | 0.00 | 45 | 996.5 |
| 20260508181505 | 65 | 120 | 0.0 | 0.9 | 0.00 | 0.00 | 0.00 | 43 | 996.8 |
| 20260508180504 | 65 | 219 | 3.5 | 5.2 | 0.00 | 0.00 | 0.00 | 37 | 996.9 |
| 20260508180004 | 64 | 112 | 0.0 | 0.0 | 0.00 | 0.00 | 0.00 | 38 | 996.9 |
| 20260508175505 | 64 | 144 | 0.0 | 0.9 | 0.00 | 0.00 | 0.00 | 39 | 996.7 |
| 20260508175005 | 63 | 119 | 1.7 | 2.6 | 0.00 | 0.00 | 0.00 | 38 | 997.0 |
| 20260508174504 | 62 | 266 | 0.9 | 1.7 | 0.00 | 0.00 | 0.00 | 38 | 997.0 |
| 20260508174005 | 62 | 220 | 0.0 | 0.0 | 0.00 | 0.00 | 0.00 | 38 | 997.2 |
| 20260508172504 | 60 | 265 | 2.6 | 5.2 | 0.00 | 0.00 | 0.00 | 41 | 997.5 |
| 20260508172005 | 61 | 307 | 0.9 | 1.7 | 0.00 | 0.00 | 0.00 | 41 | 997.5 |
| 20260508171505 | 61 | 209 | 0.0 | 0.9 | 0.00 | 0.00 | 0.00 | 41 | 997.7 |
| 20260508171004 | 62 | 253 | 1.7 | 2.6 | 0.00 | 0.00 | 0.00 | 41 | 997.6 |
| 20260508170005 | 61 | 338 | 2.6 | 4.3 | 0.00 | 0.00 | 0.00 | 39 | 997.8 |
| 20260508165505 | 61 | 251 | 0.0 | 0.0 | 0.00 | 0.00 | 0.00 | 39 | 998.1 |
| 20260508165005 | 61 | 294 | 1.7 | 2.6 | 0.00 | 0.00 | 0.00 | 39 | 998.0 |
| 20260508164504 | 61 | 254 | 2.6 | 4.3 | 0.00 | 0.00 | 0.00 | 39 | 998.0 |
| 20260508164005 | 60 | 177 | 0.0 | 0.0 | 0.00 | 0.00 | 0.00 | 40 | 998.1 |
| 20260508163504 | 60 | 233 | 2.6 | 2.6 | 0.00 | 0.00 | 0.00 | 39 | 998.4 |
| 20260508163004 | 60 | 296 | 4.3 | 5.2 | 0.00 | 0.00 | 0.00 | 41 | 998.4 |
| 20260508162504 | 60 | 200 | 0.0 | 0.0 | 0.00 | 0.00 | 0.00 | 42 | 998.5 |
| 20260508162005 | 60 | 152 | 0.0 | 0.9 | 0.00 | 0.00 | 0.00 | 43 | 998.4 |
| 20260508161504 | 60 | 197 | 0.0 | 0.9 | 0.00 | 0.00 | 0.00 | 43 | 998.4 |
| 20260508161004 | 60 | 155 | 0.9 | 0.9 | 0.00 | 0.00 | 0.00 | 43 | 998.5 |
| 20260508160504 | 60 | 166 | 0.9 | 0.9 | 0.00 | 0.00 | 0.00 | 45 | 998.4 |
| 20260508160004 | 59 | 122 | 0.0 | 0.0 | 0.00 | 0.00 | 0.00 | 47 | 998.4 |
| 20260508154504 | 57 | 276 | 2.6 | 2.6 | 0.00 | 0.00 | 0.00 | 48 | 998.7 |
| 20260508154004 | 57 | 250 | 1.7 | 4.3 | 0.00 | 0.00 | 0.00 | 49 | 998.4 |
| 20260508153505 | 57 | 228 | 1.7 | 1.7 | 0.00 | 0.00 | 0.00 | 50 | 998.6 |
| 20260508152504 | 57 | 191 | 0.9 | 1.7 | 0.00 | 0.00 | 0.00 | 51 | 998.7 |
| 20260508152004 | 57 | 148 | 0.9 | 0.9 | 0.00 | 0.00 | 0.00 | 49 | 998.7 |
| 20260508151505 | 57 | 301 | 2.6 | 2.6 | 0.00 | 0.00 | 0.00 | 49 | 998.6 |
| 20260508151004 | 56 | 209 | 0.9 | 0.9 | 0.00 | 0.00 | 0.00 | 50 | 998.7 |
| 20260508150504 | 57 | 63 | 0.9 | 0.9 | 0.00 | 0.00 | 0.00 | 51 | 998.6 |
| 20260508145505 | 59 | 126 | 0.0 | 0.9 | 0.00 | 0.00 | 0.00 | 52 | 998.9 |
| 20260508145004 | 59 | 116 | 0.0 | 0.9 | 0.00 | 0.00 | 0.00 | 52 | 998.9 |
| 20260508144505 | 58 | 124 | 0.0 | 0.0 | 0.00 | 0.00 | 0.00 | 54 | 998.7 |
| 20260508144005 | 56 | 117 | 0.9 | 0.9 | 0.00 | 0.00 | 0.00 | 54 | 998.8 |
| 20260508143504 | 57 | 114 | 0.0 | 0.9 | 0.00 | 0.00 | 0.00 | 54 | 998.8 |
| 20260508143004 | 57 | 131 | 0.0 | 0.0 | 0.00 | 0.00 | 0.00 | 55 | 999.0 |
| 20260508142504 | 55 | 159 | 0.0 | 0.0 | 0.00 | 0.00 | 0.00 | 56 | 999.0 |
| 20260508142005 | 55 | 273 | 1.7 | 1.7 | 0.00 | 0.00 | 0.00 | 58 | 999.0 |
| 20260508141505 | 54 | 114 | 0.0 | 0.0 | 0.00 | 0.00 | 0.00 | 59 | 999.0 |
| 20260508141004 | 56 | 326 | 1.7 | 1.7 | 0.00 | 0.00 | 0.00 | 58 | 999.0 |
| 20260508140504 | 55 | 121 | 0.0 | 0.0 | 0.00 | 0.00 | 0.00 | 59 | 999.0 |
| 20260508140004 | 54 | 117 | 0.0 | 0.0 | 0.00 | 0.00 | 0.00 | 61 | 999.1 |
| 20260508135504 | 54 | 188 | 0.9 | 0.9 | 0.00 | 0.00 | 0.00 | 60 | 999.1 |
| 20260508135005 | 54 | 88 | 0.0 | 0.0 | 0.00 | 0.00 | 0.00 | 60 | 999.1 |
| 20260508134504 | 53 | 97 | 0.0 | 0.0 | 0.00 | 0.00 | 0.00 | 60 | 999.1 |
| 20260508134004 | 52 | 199 | 0.0 | 0.0 | 0.00 | 0.00 | 0.00 | 65 | 999.2 |
| 20260508133504 | 53 | 119 | 0.0 | 0.0 | 0.00 | 0.00 | 0.00 | 65 | 998.8 |
| 20260508133005 | 52 | 123 | 0.0 | 0.9 | 0.00 | 0.00 | 0.00 | 67 | 999.1 |
| 20260508132504 | 52 | 174 | 0.0 | 0.0 | 0.00 | 0.00 | 0.00 | 68 | 999.0 |
| 20260508132004 | 52 | 253 | 2.6 | 2.6 | 0.00 | 0.00 | 0.00 | 68 | 999.1 |
| 20260508131505 | 51 | 161 | 0.0 | 0.9 | 0.00 | 0.00 | 0.00 | 68 | 999.2 |
| 20260508131004 | 51 | 210 | 0.9 | 0.9 | 0.00 | 0.00 | 0.00 | 68 | 999.1 |
| 20260508130004 | 50 | 256 | 2.6 | 2.6 | 0.00 | 0.00 | 0.00 | 71 | 999.0 |
| 20260508125504 | 50 | 163 | 0.0 | 0.0 | 0.00 | 0.00 | 0.00 | 72 | 998.9 |
| 20260508125005 | 50 | 194 | 0.0 | 0.0 | 0.00 | 0.00 | 0.00 | 72 | 999.0 |
| 20260508124504 | 50 | 167 | 0.0 | 0.0 | 0.00 | 0.00 | 0.00 | 71 | 998.7 |
| 20260508123504 | 51 | 146 | 0.0 | 0.0 | 0.00 | 0.00 | 0.00 | 69 | 998.9 |
| 20260508123005 | 51 | 114 | 0.0 | 0.0 | 0.00 | 0.00 | 0.00 | 68 | 999.0 |
| 20260508122504 | 51 | 107 | 0.0 | 0.0 | 0.00 | 0.00 | 0.00 | 70 | 998.7 |
| 20260508122004 | 49 | 106 | 0.0 | 0.0 | 0.00 | 0.00 | 0.00 | 73 | 998.9 |
| 20260508121504 | 48 | 115 | 0.0 | 0.0 | 0.00 | 0.00 | 0.00 | 75 | 999.0 |
| 20260508121005 | 47 | 114 | 0.0 | 0.0 | 0.00 | 0.00 | 0.00 | 76 | 998.6 |
| 20260508120504 | 47 | 114 | 0.0 | 0.0 | 0.00 | 0.00 | 0.00 | 77 | 998.7 |
| 20260508120005 | 46 | 115 | 0.0 | 0.0 | 0.00 | 0.00 | 0.00 | 79 | 998.6 |
| 20260508115504 | 46 | 128 | 0.0 | 0.0 | 0.00 | 0.00 | 0.00 | 79 | 998.6 |
| 20260508115004 | 46 | 125 | 0.0 | 0.0 | 0.00 | 0.00 | 0.00 | 80 | 998.3 |
| 20260508114505 | 45 | 124 | 0.0 | 0.0 | 0.00 | 0.00 | 0.00 | 81 | 998.6 |
| 20260508114004 | 45 | 114 | 0.0 | 0.0 | 0.00 | 0.00 | 0.00 | 83 | 998.2 |
| 20260508113005 | 44 | 114 | 0.0 | 0.0 | 0.00 | 0.00 | 0.00 | 84 | 998.2 |
| 20260508112505 | 44 | 104 | 0.0 | 0.0 | 0.00 | 0.00 | 0.00 | 85 | 998.1 |
| 20260508112005 | 44 | 107 | 0.0 | 0.0 | 0.00 | 0.00 | 0.00 | 86 | 998.4 |
| 20260508111504 | 43 | 105 | 0.0 | 0.0 | 0.00 | 0.00 | 0.00 | 86 | 998.2 |
| 20260508111004 | 43 | 125 | 0.0 | 0.0 | 0.00 | 0.00 | 0.00 | 87 | 997.9 |
| 20260508110504 | 43 | 120 | 0.0 | 0.0 | 0.00 | 0.00 | 0.00 | 88 | 998.3 |
| 20260508110005 | 43 | 277 | 0.0 | 0.0 | 0.00 | 0.00 | 0.00 | 89 | 998.1 |
| 20260508104504 | 42 | 102 | 0.0 | 0.0 | 0.00 | 0.00 | 0.00 | 91 | 998.1 |
| 20260508104005 | 42 | 102 | 0.0 | 0.0 | 0.00 | 0.00 | 0.00 | 91 | 998.3 |
| 20260508103504 | 42 | 102 | 0.0 | 0.0 | 0.00 | 0.00 | 0.00 | 91 | 998.1 |
| 20260508103004 | 42 | 102 | 0.0 | 0.0 | 0.00 | 0.00 | 0.00 | 91 | 998.0 |
| 20260508102504 | 42 | 102 | 0.0 | 0.0 | 0.00 | 0.00 | 0.00 | 91 | 997.9 |
| 20260508102004 | 42 | 102 | 0.0 | 0.0 | 0.00 | 0.00 | 0.00 | 91 | 997.9 |
| 20260508101505 | 42 | 102 | 0.0 | 0.0 | 0.00 | 0.00 | 0.00 | 91 | 998.0 |
| 20260508100504 | 42 | 102 | 0.0 | 0.0 | 0.00 | 0.00 | 0.00 | 90 | 997.8 |
| 20260508100004 | 43 | 101 | 0.0 | 0.0 | 0.00 | 0.00 | 0.00 | 90 | 998.0 |
| 20260508095505 | 43 | 101 | 0.0 | 0.0 | 0.00 | 0.00 | 0.00 | 90 | 997.9 |
| 20260508095005 | 43 | 99 | 0.0 | 0.0 | 0.00 | 0.00 | 0.00 | 90 | 997.9 |
| 20260508094504 | 43 | 101 | 0.0 | 0.0 | 0.00 | 0.00 | 0.00 | 90 | 998.2 |
| 20260508094005 | 43 | 83 | 0.0 | 0.0 | 0.00 | 0.00 | 0.00 | 90 | 998.0 |
| 20260508093504 | 43 | 101 | 0.0 | 0.0 | 0.00 | 0.00 | 0.00 | 90 | 998.0 |
| 20260508093004 | 44 | 102 | 0.0 | 0.0 | 0.00 | 0.00 | 0.00 | 90 | 997.9 |
| 20260508092504 | 44 | 102 | 0.0 | 0.0 | 0.00 | 0.00 | 0.00 | 90 | 998.2 |
| 20260508092004 | 44 | 102 | 0.0 | 0.0 | 0.00 | 0.00 | 0.00 | 90 | 998.1 |
| 20260508091505 | 44 | 102 | 0.0 | 0.0 | 0.00 | 0.00 | 0.00 | 90 | 998.1 |
| 20260508091005 | 44 | 102 | 0.0 | 0.0 | 0.00 | 0.00 | 0.00 | 89 | 998.1 |
| 20260508090504 | 44 | 102 | 0.0 | 0.0 | 0.00 | 0.00 | 0.00 | 89 | 998.2 |
| 20260508090005 | 44 | 102 | 0.0 | 0.0 | 0.00 | 0.00 | 0.00 | 89 | 997.9 |
| 20260508085504 | 44 | 102 | 0.0 | 0.0 | 0.00 | 0.00 | 0.00 | 88 | 998.1 |
| 20260508085005 | 44 | 102 | 0.0 | 0.0 | 0.00 | 0.00 | 0.00 | 88 | 998.3 |
| 20260508084504 | 44 | 102 | 0.0 | 0.0 | 0.00 | 0.00 | 0.00 | 88 | 998.2 |
| 20260508084004 | 44 | 102 | 0.0 | 0.0 | 0.00 | 0.00 | 0.00 | 88 | 998.2 |
| 20260508083505 | 44 | 106 | 0.0 | 0.0 | 0.00 | 0.00 | 0.00 | 88 | 998.3 |
| 20260508083005 | 44 | 91 | 0.0 | 0.0 | 0.00 | 0.00 | 0.00 | 87 | 998.4 |
| 20260508082504 | 45 | 89 | 0.0 | 0.0 | 0.00 | 0.00 | 0.00 | 86 | 998.4 |
| 20260508082005 | 45 | 96 | 0.0 | 0.0 | 0.00 | 0.00 | 0.00 | 85 | 998.3 |
| 20260508081504 | 45 | 87 | 0.0 | 0.0 | 0.00 | 0.00 | 0.00 | 85 | 998.2 |
| 20260508081004 | 45 | 88 | 0.0 | 0.0 | 0.00 | 0.00 | 0.00 | 83 | 998.2 |
| 20260508080505 | 46 | 128 | 0.0 | 0.0 | 0.00 | 0.00 | 0.00 | 82 | 998.3 |
| 20260508080005 | 46 | 128 | 0.0 | 0.0 | 0.00 | 0.00 | 0.00 | 81 | 998.2 |
| 20260508075505 | 46 | 133 | 0.0 | 0.0 | 0.00 | 0.00 | 0.00 | 81 | 998.2 |
| 20260508074505 | 46 | 116 | 0.0 | 0.0 | 0.00 | 0.00 | 0.00 | 78 | 998.3 |
| 20260508074005 | 46 | 154 | 0.0 | 0.0 | 0.00 | 0.00 | 0.00 | 79 | 998.5 |
| 20260508073504 | 46 | 155 | 0.0 | 0.0 | 0.00 | 0.00 | 0.00 | 79 | 998.2 |
| 20260508073004 | 46 | 155 | 0.0 | 0.0 | 0.00 | 0.00 | 0.00 | 79 | 998.2 |
| 20260508072504 | 46 | 155 | 0.0 | 0.0 | 0.00 | 0.00 | 0.00 | 80 | 998.3 |
| 20260508072004 | 46 | 155 | 0.0 | 0.0 | 0.00 | 0.00 | 0.00 | 81 | 998.0 |
| 20260508071505 | 45 | 155 | 0.0 | 0.0 | 0.00 | 0.00 | 0.00 | 81 | 998.2 |
| 20260508071004 | 45 | 155 | 0.0 | 0.0 | 0.00 | 0.00 | 0.00 | 82 | 998.1 |
| 20260508070505 | 45 | 155 | 0.0 | 0.0 | 0.00 | 0.00 | 0.00 | 83 | 998.0 |
| 20260508065504 | 45 | 155 | 0.0 | 0.0 | 0.00 | 0.00 | 0.00 | 83 | 997.9 |
| 20260508065005 | 45 | 155 | 0.0 | 0.0 | 0.00 | 0.00 | 0.00 | 83 | 998.1 |
| 20260508064505 | 44 | 155 | 0.0 | 0.0 | 0.00 | 0.00 | 0.00 | 83 | 998.2 |
| 20260508063504 | 44 | 155 | 0.0 | 0.0 | 0.00 | 0.00 | 0.00 | 83 | 998.1 |
| 20260508063005 | 44 | 155 | 0.0 | 0.0 | 0.00 | 0.00 | 0.00 | 82 | 998.3 |
| 20260508062505 | 45 | 155 | 0.0 | 0.0 | 0.00 | 0.00 | 0.00 | 82 | 998.2 |
| 20260508062005 | 45 | 155 | 0.0 | 0.0 | 0.00 | 0.00 | 0.00 | 81 | 998.4 |
| 20260508061504 | 45 | 154 | 0.0 | 0.0 | 0.00 | 0.00 | 0.00 | 81 | 998.2 |
| 20260508061005 | 45 | 154 | 0.0 | 0.0 | 0.00 | 0.00 | 0.00 | 81 | 998.3 |
| 20260508060505 | 45 | 154 | 0.0 | 0.0 | 0.00 | 0.00 | 0.00 | 81 | 998.4 |
| 20260508060005 | 45 | 154 | 0.0 | 0.0 | 0.00 | 0.00 | 0.00 | 81 | 998.6 |
| 20260508055505 | 45 | 154 | 0.0 | 0.0 | 0.00 | 0.00 | 0.00 | 80 | 998.5 |
| 20260508055004 | 45 | 154 | 0.0 | 0.0 | 0.00 | 0.00 | 0.00 | 79 | 998.4 |
| 20260508054504 | 45 | 154 | 0.0 | 0.0 | 0.00 | 0.00 | 0.00 | 79 | 998.4 |
| 20260508054004 | 46 | 155 | 0.0 | 0.0 | 0.00 | 0.00 | 0.00 | 78 | 998.4 |
| 20260508053505 | 46 | 154 | 0.0 | 0.0 | 0.00 | 0.00 | 0.00 | 78 | 998.6 |
| 20260508053004 | 46 | 155 | 0.0 | 0.0 | 0.00 | 0.00 | 0.00 | 76 | 998.6 |
| 20260508052504 | 47 | 123 | 0.0 | 0.0 | 0.00 | 0.00 | 0.00 | 74 | 998.5 |
| 20260508052005 | 47 | 201 | 0.9 | 0.9 | 0.00 | 0.00 | 0.00 | 72 | 998.6 |
| 20260508051505 | 48 | 148 | 0.0 | 0.0 | 0.00 | 0.00 | 0.00 | 70 | 998.6 |
| 20260508051004 | 48 | 271 | 1.7 | 1.7 | 0.00 | 0.00 | 0.00 | 69 | 998.8 |
| 20260508050505 | 48 | 72 | 0.0 | 0.9 | 0.00 | 0.00 | 0.00 | 68 | 998.8 |
| 20260508050005 | 49 | 351 | 0.9 | 0.9 | 0.00 | 0.00 | 0.00 | 67 | 998.6 |
| 20260508045005 | 51 | 254 | 0.9 | 1.7 | 0.00 | 0.00 | 0.00 | 63 | 998.5 |
| 20260508044504 | 51 | 149 | 0.0 | 0.0 | 0.00 | 0.00 | 0.00 | 62 | 998.6 |
| 20260508044004 | 51 | 152 | 0.0 | 0.9 | 0.00 | 0.00 | 0.00 | 60 | 998.5 |
| 20260508042504 | 51 | 154 | 0.0 | 0.0 | 0.00 | 0.00 | 0.00 | 59 | 998.4 |
| 20260508042004 | 51 | 176 | 0.0 | 0.0 | 0.00 | 0.00 | 0.00 | 59 | 998.5 |
| 20260508041505 | 50 | 177 | 0.0 | 0.0 | 0.00 | 0.00 | 0.00 | 59 | 998.4 |
| 20260508041005 | 50 | 177 | 0.0 | 0.0 | 0.00 | 0.00 | 0.00 | 60 | 998.3 |
| 20260508040504 | 50 | 175 | 0.0 | 0.0 | 0.00 | 0.00 | 0.00 | 59 | 998.3 |
| 20260508035504 | 50 | 174 | 0.0 | 0.0 | 0.00 | 0.00 | 0.00 | 58 | 998.6 |